sensor_id;sensor_type;location;lat;lon;timestamp;P1;durP1;ratioP1;P2;durP2;ratioP2
72404;SDS011;60395;52.020;113.548;2023-03-24T00:00:27;147.93;;;59.10;;
72404;SDS011;60395;52.020;113.548;2023-03-24T00:03:31;154.68;;;60.58;;
72404;SDS011;60395;52.020;113.548;2023-03-24T00:06:35;165.47;;;66.77;;
72404;SDS011;60395;52.020;113.548;2023-03-24T00:09:39;162.60;;;62.85;;
72404;SDS011;60395;52.020;113.548;2023-03-24T00:12:46;154.65;;;58.55;;
72404;SDS011;60395;52.020;113.548;2023-03-24T00:15:49;138.70;;;54.47;;
72404;SDS011;60395;52.020;113.548;2023-03-24T00:18:52;149.75;;;55.65;;
72404;SDS011;60395;52.020;113.548;2023-03-24T00:21:55;145.73;;;55.70;;
72404;SDS011;60395;52.020;113.548;2023-03-24T00:24:59;148.32;;;53.75;;
72404;SDS011;60395;52.020;113.548;2023-03-24T00:28:05;142.93;;;52.53;;
72404;SDS011;60395;52.020;113.548;2023-03-24T00:31:09;138.40;;;53.97;;
72404;SDS011;60395;52.020;113.548;2023-03-24T00:34:16;134.95;;;53.00;;
72404;SDS011;60395;52.020;113.548;2023-03-24T00:37:19;129.50;;;53.83;;
72404;SDS011;60395;52.020;113.548;2023-03-24T00:40:23;121.60;;;49.80;;
72404;SDS011;60395;52.020;113.548;2023-03-24T00:43:29;126.30;;;47.38;;
72404;SDS011;60395;52.020;113.548;2023-03-24T00:46:32;120.72;;;44.20;;
72404;SDS011;60395;52.020;113.548;2023-03-24T00:49:36;106.40;;;41.00;;
72404;SDS011;60395;52.020;113.548;2023-03-24T00:52:49;114.50;;;37.38;;
72404;SDS011;60395;52.020;113.548;2023-03-24T00:55:52;102.82;;;37.13;;
72404;SDS011;60395;52.020;113.548;2023-03-24T00:58:56;115.47;;;39.53;;
72404;SDS011;60395;52.020;113.548;2023-03-24T01:02:00;131.88;;;42.28;;
72404;SDS011;60395;52.020;113.548;2023-03-24T01:05:03;126.47;;;41.60;;
72404;SDS011;60395;52.020;113.548;2023-03-24T01:08:08;126.70;;;40.80;;
72404;SDS011;60395;52.020;113.548;2023-03-24T01:11:12;69.40;;;23.95;;
72404;SDS011;60395;52.020;113.548;2023-03-24T01:14:15;80.43;;;27.50;;
72404;SDS011;60395;52.020;113.548;2023-03-24T01:17:19;57.85;;;19.20;;
72404;SDS011;60395;52.020;113.548;2023-03-24T01:20:27;53.00;;;18.83;;
72404;SDS011;60395;52.020;113.548;2023-03-24T01:23:36;47.88;;;16.58;;
72404;SDS011;60395;52.020;113.548;2023-03-24T01:29:43;38.00;;;13.18;;
72404;SDS011;60395;52.020;113.548;2023-03-24T01:32:47;20.13;;;7.13;;
72404;SDS011;60395;52.020;113.548;2023-03-24T01:35:50;24.02;;;9.73;;
72404;SDS011;60395;52.020;113.548;2023-03-24T01:38:54;20.97;;;8.50;;
72404;SDS011;60395;52.020;113.548;2023-03-24T01:41:59;14.98;;;6.07;;
72404;SDS011;60395;52.020;113.548;2023-03-24T01:52:06;12.77;;;5.28;;
72404;SDS011;60395;52.020;113.548;2023-03-24T01:55:17;12.40;;;4.82;;
72404;SDS011;60395;52.020;113.548;2023-03-24T01:58:24;17.42;;;6.13;;
72404;SDS011;60395;52.020;113.548;2023-03-24T02:01:48;12.65;;;5.55;;
72404;SDS011;60395;52.020;113.548;2023-03-24T02:05:15;18.33;;;7.32;;
72404;SDS011;60395;52.020;113.548;2023-03-24T02:11:32;20.55;;;5.57;;
72404;SDS011;60395;52.020;113.548;2023-03-24T02:14:39;12.98;;;5.47;;
72404;SDS011;60395;52.020;113.548;2023-03-24T02:28:35;19.63;;;6.78;;
72404;SDS011;60395;52.020;113.548;2023-03-24T02:35:00;18.85;;;7.10;;
72404;SDS011;60395;52.020;113.548;2023-03-24T02:51:45;16.33;;;6.43;;
72404;SDS011;60395;52.020;113.548;2023-03-24T02:55:14;17.17;;;5.97;;
72404;SDS011;60395;52.020;113.548;2023-03-24T02:58:30;17.63;;;6.50;;
72404;SDS011;60395;52.020;113.548;2023-03-24T03:01:42;18.35;;;6.22;;
72404;SDS011;60395;52.020;113.548;2023-03-24T03:05:20;22.15;;;7.97;;
72404;SDS011;60395;52.020;113.548;2023-03-24T03:08:29;27.65;;;8.23;;
72404;SDS011;60395;52.020;113.548;2023-03-24T03:11:35;17.20;;;6.28;;
72404;SDS011;60395;52.020;113.548;2023-03-24T03:14:45;17.30;;;5.38;;
72404;SDS011;60395;52.020;113.548;2023-03-24T03:18:04;17.70;;;5.20;;
72404;SDS011;60395;52.020;113.548;2023-03-24T03:21:12;19.73;;;6.50;;
72404;SDS011;60395;52.020;113.548;2023-03-24T03:24:24;16.58;;;6.28;;
72404;SDS011;60395;52.020;113.548;2023-03-24T03:27:34;10.45;;;4.35;;
72404;SDS011;60395;52.020;113.548;2023-03-24T03:30:41;19.20;;;6.25;;
72404;SDS011;60395;52.020;113.548;2023-03-24T03:37:23;16.92;;;6.55;;
72404;SDS011;60395;52.020;113.548;2023-03-24T03:40:48;14.88;;;6.22;;
72404;SDS011;60395;52.020;113.548;2023-03-24T03:43:56;16.88;;;5.90;;
72404;SDS011;60395;52.020;113.548;2023-03-24T03:47:00;18.70;;;6.43;;
72404;SDS011;60395;52.020;113.548;2023-03-24T03:50:12;13.13;;;4.60;;
72404;SDS011;60395;52.020;113.548;2023-03-24T03:53:16;12.23;;;4.70;;
72404;SDS011;60395;52.020;113.548;2023-03-24T03:56:24;11.38;;;3.90;;
72404;SDS011;60395;52.020;113.548;2023-03-24T04:00:02;9.40;;;2.97;;
72404;SDS011;60395;52.020;113.548;2023-03-24T04:14:46;5.93;;;2.15;;
72404;SDS011;60395;52.020;113.548;2023-03-24T04:18:31;11.68;;;3.80;;
72404;SDS011;60395;52.020;113.548;2023-03-24T04:25:22;6.55;;;2.70;;
72404;SDS011;60395;52.020;113.548;2023-03-24T04:32:07;11.95;;;4.63;;
72404;SDS011;60395;52.020;113.548;2023-03-24T04:35:18;12.93;;;4.00;;
72404;SDS011;60395;52.020;113.548;2023-03-24T04:38:44;10.75;;;3.55;;
72404;SDS011;60395;52.020;113.548;2023-03-24T04:42:07;11.02;;;3.58;;
72404;SDS011;60395;52.020;113.548;2023-03-24T04:45:15;10.63;;;3.78;;
72404;SDS011;60395;52.020;113.548;2023-03-24T04:48:43;11.23;;;4.90;;
72404;SDS011;60395;52.020;113.548;2023-03-24T04:52:04;8.13;;;3.92;;
72404;SDS011;60395;52.020;113.548;2023-03-24T04:55:28;9.60;;;3.72;;
72404;SDS011;60395;52.020;113.548;2023-03-24T04:59:11;12.13;;;4.35;;
72404;SDS011;60395;52.020;113.548;2023-03-24T05:02:16;10.18;;;4.20;;
72404;SDS011;60395;52.020;113.548;2023-03-24T05:05:31;12.73;;;4.40;;
72404;SDS011;60395;52.020;113.548;2023-03-24T05:08:34;10.95;;;4.63;;
72404;SDS011;60395;52.020;113.548;2023-03-24T05:11:37;13.80;;;4.50;;
72404;SDS011;60395;52.020;113.548;2023-03-24T05:14:42;10.02;;;4.43;;
72404;SDS011;60395;52.020;113.548;2023-03-24T05:17:46;14.63;;;5.05;;
72404;SDS011;60395;52.020;113.548;2023-03-24T05:20:49;14.27;;;4.20;;
72404;SDS011;60395;52.020;113.548;2023-03-24T05:23:55;13.50;;;5.00;;
72404;SDS011;60395;52.020;113.548;2023-03-24T05:26:58;17.75;;;5.68;;
72404;SDS011;60395;52.020;113.548;2023-03-24T05:30:03;16.63;;;6.22;;
72404;SDS011;60395;52.020;113.548;2023-03-24T05:33:10;10.02;;;4.20;;
72404;SDS011;60395;52.020;113.548;2023-03-24T05:36:13;12.27;;;4.85;;
72404;SDS011;60395;52.020;113.548;2023-03-24T05:39:23;16.35;;;5.60;;
72404;SDS011;60395;52.020;113.548;2023-03-24T05:42:36;16.65;;;5.05;;
72404;SDS011;60395;52.020;113.548;2023-03-24T05:45:39;8.82;;;3.55;;
72404;SDS011;60395;52.020;113.548;2023-03-24T05:48:46;10.65;;;3.80;;
72404;SDS011;60395;52.020;113.548;2023-03-24T05:51:51;13.35;;;4.43;;
72404;SDS011;60395;52.020;113.548;2023-03-24T05:54:54;8.95;;;3.88;;
72404;SDS011;60395;52.020;113.548;2023-03-24T05:58:01;10.65;;;3.72;;
72404;SDS011;60395;52.020;113.548;2023-03-24T06:01:22;8.10;;;3.75;;
72404;SDS011;60395;52.020;113.548;2023-03-24T06:04:34;9.68;;;3.45;;
72404;SDS011;60395;52.020;113.548;2023-03-24T06:07:45;8.75;;;3.15;;
72404;SDS011;60395;52.020;113.548;2023-03-24T06:10:48;11.98;;;3.78;;
72404;SDS011;60395;52.020;113.548;2023-03-24T06:13:51;10.65;;;4.88;;
72404;SDS011;60395;52.020;113.548;2023-03-24T06:16:55;10.05;;;4.10;;
72404;SDS011;60395;52.020;113.548;2023-03-24T06:20:02;11.43;;;2.83;;
72404;SDS011;60395;52.020;113.548;2023-03-24T06:23:33;9.50;;;3.53;;
72404;SDS011;60395;52.020;113.548;2023-03-24T06:26:42;6.18;;;2.40;;
72404;SDS011;60395;52.020;113.548;2023-03-24T06:29:47;7.13;;;3.08;;
72404;SDS011;60395;52.020;113.548;2023-03-24T06:32:50;6.60;;;2.40;;
72404;SDS011;60395;52.020;113.548;2023-03-24T06:35:54;8.73;;;2.60;;
72404;SDS011;60395;52.020;113.548;2023-03-24T06:38:59;6.78;;;3.10;;
72404;SDS011;60395;52.020;113.548;2023-03-24T06:42:10;7.05;;;3.03;;
72404;SDS011;60395;52.020;113.548;2023-03-24T06:45:14;8.73;;;3.30;;
72404;SDS011;60395;52.020;113.548;2023-03-24T06:48:21;8.15;;;3.15;;
72404;SDS011;60395;52.020;113.548;2023-03-24T06:51:32;8.98;;;3.38;;
72404;SDS011;60395;52.020;113.548;2023-03-24T06:54:36;9.20;;;3.08;;
72404;SDS011;60395;52.020;113.548;2023-03-24T06:57:42;7.25;;;3.60;;
72404;SDS011;60395;52.020;113.548;2023-03-24T07:01:12;6.25;;;2.80;;
72404;SDS011;60395;52.020;113.548;2023-03-24T07:04:36;10.57;;;3.42;;
72404;SDS011;60395;52.020;113.548;2023-03-24T07:07:58;47.10;;;22.50;;
72404;SDS011;60395;52.020;113.548;2023-03-24T07:11:12;14.15;;;5.75;;
72404;SDS011;60395;52.020;113.548;2023-03-24T07:14:26;8.02;;;3.53;;
72404;SDS011;60395;52.020;113.548;2023-03-24T07:17:31;9.98;;;2.80;;
72404;SDS011;60395;52.020;113.548;2023-03-24T07:21:03;8.15;;;2.80;;
72404;SDS011;60395;52.020;113.548;2023-03-24T07:24:09;9.40;;;2.85;;
72404;SDS011;60395;52.020;113.548;2023-03-24T07:27:41;6.47;;;2.88;;
72404;SDS011;60395;52.020;113.548;2023-03-24T07:30:46;9.05;;;2.33;;
72404;SDS011;60395;52.020;113.548;2023-03-24T07:33:52;6.03;;;2.10;;
72404;SDS011;60395;52.020;113.548;2023-03-24T07:36:56;5.17;;;2.80;;
72404;SDS011;60395;52.020;113.548;2023-03-24T07:40:06;6.88;;;2.60;;
72404;SDS011;60395;52.020;113.548;2023-03-24T07:43:15;8.98;;;2.70;;
72404;SDS011;60395;52.020;113.548;2023-03-24T07:46:41;8.43;;;2.78;;
72404;SDS011;60395;52.020;113.548;2023-03-24T07:49:45;6.00;;;2.40;;
72404;SDS011;60395;52.020;113.548;2023-03-24T07:52:48;8.27;;;2.50;;
72404;SDS011;60395;52.020;113.548;2023-03-24T07:55:54;9.60;;;2.92;;
72404;SDS011;60395;52.020;113.548;2023-03-24T07:58:58;11.13;;;2.45;;
72404;SDS011;60395;52.020;113.548;2023-03-24T08:02:20;5.90;;;2.38;;
72404;SDS011;60395;52.020;113.548;2023-03-24T08:05:42;5.50;;;2.55;;
72404;SDS011;60395;52.020;113.548;2023-03-24T08:08:52;8.52;;;2.60;;
72404;SDS011;60395;52.020;113.548;2023-03-24T08:11:56;8.48;;;2.63;;
72404;SDS011;60395;52.020;113.548;2023-03-24T08:15:08;9.27;;;2.88;;
72404;SDS011;60395;52.020;113.548;2023-03-24T08:18:12;8.70;;;3.40;;
72404;SDS011;60395;52.020;113.548;2023-03-24T08:21:15;6.97;;;3.30;;
72404;SDS011;60395;52.020;113.548;2023-03-24T08:24:19;6.18;;;2.80;;
72404;SDS011;60395;52.020;113.548;2023-03-24T08:27:22;8.27;;;2.67;;
72404;SDS011;60395;52.020;113.548;2023-03-24T08:30:26;8.95;;;2.67;;
72404;SDS011;60395;52.020;113.548;2023-03-24T08:33:30;9.50;;;4.05;;
72404;SDS011;60395;52.020;113.548;2023-03-24T08:36:33;7.32;;;3.05;;
72404;SDS011;60395;52.020;113.548;2023-03-24T08:39:37;6.45;;;2.88;;
72404;SDS011;60395;52.020;113.548;2023-03-24T08:42:40;9.85;;;2.67;;
72404;SDS011;60395;52.020;113.548;2023-03-24T08:45:44;9.13;;;3.17;;
72404;SDS011;60395;52.020;113.548;2023-03-24T08:48:47;8.85;;;3.10;;
72404;SDS011;60395;52.020;113.548;2023-03-24T08:51:51;8.55;;;3.30;;
72404;SDS011;60395;52.020;113.548;2023-03-24T08:54:54;10.15;;;3.63;;
72404;SDS011;60395;52.020;113.548;2023-03-24T08:57:58;11.70;;;2.78;;
72404;SDS011;60395;52.020;113.548;2023-03-24T09:01:01;7.13;;;2.65;;
72404;SDS011;60395;52.020;113.548;2023-03-24T09:04:05;8.85;;;2.70;;
72404;SDS011;60395;52.020;113.548;2023-03-24T09:07:08;7.78;;;2.85;;
72404;SDS011;60395;52.020;113.548;2023-03-24T09:10:13;14.30;;;3.35;;
72404;SDS011;60395;52.020;113.548;2023-03-24T09:13:17;9.80;;;3.67;;
72404;SDS011;60395;52.020;113.548;2023-03-24T09:16:22;10.70;;;3.90;;
72404;SDS011;60395;52.020;113.548;2023-03-24T09:19:26;13.73;;;4.13;;
72404;SDS011;60395;52.020;113.548;2023-03-24T09:22:29;18.85;;;5.00;;
72404;SDS011;60395;52.020;113.548;2023-03-24T09:25:32;19.77;;;5.75;;
72404;SDS011;60395;52.020;113.548;2023-03-24T09:28:35;19.58;;;5.90;;
72404;SDS011;60395;52.020;113.548;2023-03-24T09:31:43;21.98;;;5.15;;
72404;SDS011;60395;52.020;113.548;2023-03-24T09:34:46;12.35;;;3.53;;
72404;SDS011;60395;52.020;113.548;2023-03-24T09:37:50;9.85;;;3.05;;
72404;SDS011;60395;52.020;113.548;2023-03-24T09:41:00;10.00;;;3.28;;
72404;SDS011;60395;52.020;113.548;2023-03-24T09:47:41;27.95;;;7.72;;
72404;SDS011;60395;52.020;113.548;2023-03-24T09:50:52;31.58;;;9.80;;
72404;SDS011;60395;52.020;113.548;2023-03-24T09:54:18;38.30;;;12.10;;
72404;SDS011;60395;52.020;113.548;2023-03-24T09:57:33;51.28;;;13.48;;
72404;SDS011;60395;52.020;113.548;2023-03-24T10:00:41;34.53;;;10.95;;
72404;SDS011;60395;52.020;113.548;2023-03-24T10:03:47;23.45;;;7.90;;
72404;SDS011;60395;52.020;113.548;2023-03-24T10:06:52;25.13;;;7.93;;
72404;SDS011;60395;52.020;113.548;2023-03-24T10:10:23;23.10;;;8.10;;
72404;SDS011;60395;52.020;113.548;2023-03-24T10:17:08;41.70;;;14.23;;
72404;SDS011;60395;52.020;113.548;2023-03-24T10:27:14;38.97;;;16.13;;
72404;SDS011;60395;52.020;113.548;2023-03-24T10:30:42;28.15;;;10.77;;
72404;SDS011;60395;52.020;113.548;2023-03-24T10:33:51;33.65;;;13.90;;
72404;SDS011;60395;52.020;113.548;2023-03-24T10:36:55;29.77;;;11.25;;
72404;SDS011;60395;52.020;113.548;2023-03-24T10:40:01;45.28;;;15.75;;
72404;SDS011;60395;52.020;113.548;2023-03-24T10:43:10;32.05;;;12.07;;
72404;SDS011;60395;52.020;113.548;2023-03-24T10:46:14;34.60;;;13.85;;
72404;SDS011;60395;52.020;113.548;2023-03-24T10:49:21;66.63;;;22.27;;
72404;SDS011;60395;52.020;113.548;2023-03-24T10:52:26;45.85;;;14.85;;
72404;SDS011;60395;52.020;113.548;2023-03-24T10:55:40;32.75;;;12.13;;
72404;SDS011;60395;52.020;113.548;2023-03-24T10:58:45;21.40;;;8.70;;
72404;SDS011;60395;52.020;113.548;2023-03-24T11:01:54;13.38;;;5.45;;
72404;SDS011;60395;52.020;113.548;2023-03-24T11:05:13;38.22;;;11.55;;
72404;SDS011;60395;52.020;113.548;2023-03-24T11:08:24;26.10;;;9.43;;
72404;SDS011;60395;52.020;113.548;2023-03-24T11:11:30;34.00;;;9.00;;
72404;SDS011;60395;52.020;113.548;2023-03-24T11:14:33;24.70;;;8.80;;
72404;SDS011;60395;52.020;113.548;2023-03-24T11:17:47;23.13;;;7.68;;
72404;SDS011;60395;52.020;113.548;2023-03-24T11:20:59;23.75;;;9.38;;
72404;SDS011;60395;52.020;113.548;2023-03-24T11:24:10;19.48;;;7.20;;
72404;SDS011;60395;52.020;113.548;2023-03-24T11:27:17;18.58;;;8.32;;
72404;SDS011;60395;52.020;113.548;2023-03-24T11:30:21;15.45;;;5.90;;
72404;SDS011;60395;52.020;113.548;2023-03-24T11:33:26;26.67;;;9.30;;
72404;SDS011;60395;52.020;113.548;2023-03-24T11:36:38;30.98;;;10.88;;
72404;SDS011;60395;52.020;113.548;2023-03-24T11:43:18;24.08;;;8.00;;
72404;SDS011;60395;52.020;113.548;2023-03-24T11:46:23;22.92;;;6.70;;
72404;SDS011;60395;52.020;113.548;2023-03-24T11:49:29;9.18;;;3.33;;
72404;SDS011;60395;52.020;113.548;2023-03-24T11:53:21;13.30;;;4.35;;
72404;SDS011;60395;52.020;113.548;2023-03-24T11:56:16;13.07;;;4.13;;
72404;SDS011;60395;52.020;113.548;2023-03-24T12:03:17;6.80;;;2.50;;
72404;SDS011;60395;52.020;113.548;2023-03-24T12:06:32;13.88;;;4.22;;
72404;SDS011;60395;52.020;113.548;2023-03-24T12:09:54;13.48;;;4.05;;
72404;SDS011;60395;52.020;113.548;2023-03-24T12:13:10;11.60;;;4.13;;
72404;SDS011;60395;52.020;113.548;2023-03-24T12:20:06;24.52;;;7.07;;
72404;SDS011;60395;52.020;113.548;2023-03-24T12:23:17;19.48;;;7.60;;
72404;SDS011;60395;52.020;113.548;2023-03-24T12:26:28;22.70;;;7.72;;
72404;SDS011;60395;52.020;113.548;2023-03-24T12:36:17;13.00;;;5.25;;
72404;SDS011;60395;52.020;113.548;2023-03-24T12:39:34;16.20;;;5.00;;
72404;SDS011;60395;52.020;113.548;2023-03-24T12:42:47;13.23;;;5.28;;
72404;SDS011;60395;52.020;113.548;2023-03-24T12:46:10;11.90;;;4.93;;
72404;SDS011;60395;52.020;113.548;2023-03-24T13:02:37;17.42;;;6.68;;
72404;SDS011;60395;52.020;113.548;2023-03-24T13:05:47;11.63;;;5.22;;
72404;SDS011;60395;52.020;113.548;2023-03-24T13:08:57;16.45;;;5.30;;
72404;SDS011;60395;52.020;113.548;2023-03-24T13:12:31;14.25;;;5.80;;
72404;SDS011;60395;52.020;113.548;2023-03-24T13:18:51;17.33;;;6.80;;
72404;SDS011;60395;52.020;113.548;2023-03-24T13:22:01;18.97;;;6.27;;
72404;SDS011;60395;52.020;113.548;2023-03-24T13:25:12;19.60;;;8.25;;
72404;SDS011;60395;52.020;113.548;2023-03-24T13:28:36;19.77;;;6.85;;
72404;SDS011;60395;52.020;113.548;2023-03-24T13:41:50;12.32;;;4.00;;
72404;SDS011;60395;52.020;113.548;2023-03-24T13:44:56;10.93;;;4.20;;
72404;SDS011;60395;52.020;113.548;2023-03-24T13:51:16;11.88;;;4.38;;
72404;SDS011;60395;52.020;113.548;2023-03-24T13:54:26;10.23;;;4.82;;
72404;SDS011;60395;52.020;113.548;2023-03-24T13:57:30;11.05;;;4.82;;
72404;SDS011;60395;52.020;113.548;2023-03-24T14:00:33;8.43;;;4.40;;
72404;SDS011;60395;52.020;113.548;2023-03-24T14:15:06;11.70;;;2.78;;
72404;SDS011;60395;52.020;113.548;2023-03-24T14:21:29;8.48;;;2.70;;
72404;SDS011;60395;52.020;113.548;2023-03-24T14:24:36;10.10;;;3.65;;
72404;SDS011;60395;52.020;113.548;2023-03-24T14:27:41;9.35;;;3.53;;
72404;SDS011;60395;52.020;113.548;2023-03-24T14:34:17;13.15;;;4.55;;
72404;SDS011;60395;52.020;113.548;2023-03-24T14:37:23;10.55;;;3.60;;
72404;SDS011;60395;52.020;113.548;2023-03-24T14:40:38;7.72;;;2.95;;
72404;SDS011;60395;52.020;113.548;2023-03-24T14:46:48;12.05;;;4.43;;
72404;SDS011;60395;52.020;113.548;2023-03-24T14:49:53;11.18;;;4.22;;
72404;SDS011;60395;52.020;113.548;2023-03-24T14:52:59;12.68;;;4.13;;
72404;SDS011;60395;52.020;113.548;2023-03-24T14:56:10;10.63;;;4.20;;
72404;SDS011;60395;52.020;113.548;2023-03-24T14:59:20;7.40;;;3.83;;
72404;SDS011;60395;52.020;113.548;2023-03-24T15:02:55;17.63;;;5.75;;
72404;SDS011;60395;52.020;113.548;2023-03-24T15:06:16;29.27;;;9.70;;
72404;SDS011;60395;52.020;113.548;2023-03-24T15:09:20;23.15;;;7.07;;
72404;SDS011;60395;52.020;113.548;2023-03-24T15:12:24;19.67;;;6.13;;
72404;SDS011;60395;52.020;113.548;2023-03-24T15:15:27;12.07;;;4.63;;
72404;SDS011;60395;52.020;113.548;2023-03-24T15:18:30;9.73;;;4.38;;
72404;SDS011;60395;52.020;113.548;2023-03-24T15:21:36;15.13;;;4.90;;
72404;SDS011;60395;52.020;113.548;2023-03-24T15:24:41;23.55;;;8.75;;
72404;SDS011;60395;52.020;113.548;2023-03-24T15:27:49;14.38;;;4.88;;
72404;SDS011;60395;52.020;113.548;2023-03-24T15:30:54;8.73;;;4.22;;
72404;SDS011;60395;52.020;113.548;2023-03-24T15:40:51;10.38;;;4.57;;
72404;SDS011;60395;52.020;113.548;2023-03-24T15:43:59;11.32;;;4.13;;
72404;SDS011;60395;52.020;113.548;2023-03-24T15:47:02;14.73;;;4.85;;
72404;SDS011;60395;52.020;113.548;2023-03-24T15:53:44;16.15;;;4.97;;
72404;SDS011;60395;52.020;113.548;2023-03-24T16:00:06;4.07;;;2.00;;
72404;SDS011;60395;52.020;113.548;2023-03-24T16:03:15;5.40;;;2.70;;
72404;SDS011;60395;52.020;113.548;2023-03-24T16:06:29;6.05;;;2.38;;
72404;SDS011;60395;52.020;113.548;2023-03-24T16:09:37;10.05;;;2.05;;
72404;SDS011;60395;52.020;113.548;2023-03-24T16:12:42;16.05;;;2.95;;
72404;SDS011;60395;52.020;113.548;2023-03-24T16:15:46;7.13;;;2.88;;
72404;SDS011;60395;52.020;113.548;2023-03-24T16:19:00;5.00;;;2.33;;
72404;SDS011;60395;52.020;113.548;2023-03-24T16:22:09;5.15;;;2.15;;
72404;SDS011;60395;52.020;113.548;2023-03-24T16:25:13;6.88;;;2.83;;
72404;SDS011;60395;52.020;113.548;2023-03-24T16:28:18;20.90;;;7.07;;
72404;SDS011;60395;52.020;113.548;2023-03-24T16:34:28;10.40;;;2.92;;
72404;SDS011;60395;52.020;113.548;2023-03-24T16:37:31;6.07;;;2.60;;
72404;SDS011;60395;52.020;113.548;2023-03-24T16:40:36;9.75;;;2.67;;
72404;SDS011;60395;52.020;113.548;2023-03-24T16:43:43;8.73;;;2.05;;
72404;SDS011;60395;52.020;113.548;2023-03-24T16:46:49;11.70;;;3.70;;
72404;SDS011;60395;52.020;113.548;2023-03-24T16:49:53;10.30;;;4.40;;
72404;SDS011;60395;52.020;113.548;2023-03-24T16:52:56;9.25;;;3.42;;
72404;SDS011;60395;52.020;113.548;2023-03-24T16:55:59;17.77;;;6.53;;
72404;SDS011;60395;52.020;113.548;2023-03-24T16:59:03;17.05;;;6.05;;
72404;SDS011;60395;52.020;113.548;2023-03-24T17:02:07;9.77;;;4.05;;
72404;SDS011;60395;52.020;113.548;2023-03-24T17:05:58;8.65;;;3.72;;
72404;SDS011;60395;52.020;113.548;2023-03-24T17:08:42;15.32;;;4.32;;
72404;SDS011;60395;52.020;113.548;2023-03-24T17:11:46;14.70;;;5.68;;
72404;SDS011;60395;52.020;113.548;2023-03-24T17:14:53;22.30;;;8.70;;
72404;SDS011;60395;52.020;113.548;2023-03-24T17:17:56;33.27;;;11.20;;
72404;SDS011;60395;52.020;113.548;2023-03-24T17:20:59;33.70;;;12.55;;
72404;SDS011;60395;52.020;113.548;2023-03-24T17:24:03;36.10;;;12.68;;
72404;SDS011;60395;52.020;113.548;2023-03-24T17:27:12;28.48;;;9.20;;
72404;SDS011;60395;52.020;113.548;2023-03-24T17:30:21;9.18;;;3.10;;
72404;SDS011;60395;52.020;113.548;2023-03-24T17:33:25;18.25;;;6.55;;
72404;SDS011;60395;52.020;113.548;2023-03-24T17:36:28;12.27;;;5.28;;
72404;SDS011;60395;52.020;113.548;2023-03-24T17:39:32;25.55;;;8.95;;
72404;SDS011;60395;52.020;113.548;2023-03-24T17:42:35;23.90;;;7.28;;
72404;SDS011;60395;52.020;113.548;2023-03-24T17:45:46;26.55;;;9.18;;
72404;SDS011;60395;52.020;113.548;2023-03-24T17:48:49;31.23;;;10.35;;
72404;SDS011;60395;52.020;113.548;2023-03-24T17:51:52;24.88;;;8.75;;
72404;SDS011;60395;52.020;113.548;2023-03-24T17:54:56;20.00;;;6.63;;
72404;SDS011;60395;52.020;113.548;2023-03-24T17:57:59;18.08;;;6.90;;
72404;SDS011;60395;52.020;113.548;2023-03-24T18:01:02;25.67;;;10.38;;
72404;SDS011;60395;52.020;113.548;2023-03-24T18:04:10;38.00;;;12.30;;
72404;SDS011;60395;52.020;113.548;2023-03-24T18:07:13;37.60;;;12.82;;
72404;SDS011;60395;52.020;113.548;2023-03-24T18:10:16;47.05;;;14.82;;
72404;SDS011;60395;52.020;113.548;2023-03-24T18:13:20;47.72;;;15.70;;
72404;SDS011;60395;52.020;113.548;2023-03-24T18:16:23;52.63;;;18.03;;
72404;SDS011;60395;52.020;113.548;2023-03-24T18:19:29;53.35;;;18.27;;
72404;SDS011;60395;52.020;113.548;2023-03-24T18:22:32;52.83;;;15.25;;
72404;SDS011;60395;52.020;113.548;2023-03-24T18:25:36;54.58;;;17.77;;
72404;SDS011;60395;52.020;113.548;2023-03-24T18:28:39;61.88;;;17.98;;
72404;SDS011;60395;52.020;113.548;2023-03-24T18:34:46;55.58;;;17.60;;
72404;SDS011;60395;52.020;113.548;2023-03-24T18:37:51;53.47;;;18.13;;
72404;SDS011;60395;52.020;113.548;2023-03-24T18:40:58;51.63;;;18.70;;
72404;SDS011;60395;52.020;113.548;2023-03-24T18:44:07;54.45;;;17.35;;
72404;SDS011;60395;52.020;113.548;2023-03-24T18:47:13;49.80;;;17.45;;
72404;SDS011;60395;52.020;113.548;2023-03-24T18:50:17;51.78;;;16.30;;
72404;SDS011;60395;52.020;113.548;2023-03-24T18:53:20;48.08;;;15.40;;
72404;SDS011;60395;52.020;113.548;2023-03-24T18:56:25;38.20;;;13.95;;
72404;SDS011;60395;52.020;113.548;2023-03-24T18:59:29;37.63;;;13.25;;
72404;SDS011;60395;52.020;113.548;2023-03-24T19:02:32;37.55;;;13.15;;
72404;SDS011;60395;52.020;113.548;2023-03-24T19:05:36;54.30;;;13.73;;
72404;SDS011;60395;52.020;113.548;2023-03-24T19:08:40;29.08;;;9.45;;
72404;SDS011;60395;52.020;113.548;2023-03-24T19:11:48;26.00;;;11.35;;
72404;SDS011;60395;52.020;113.548;2023-03-24T19:14:51;35.13;;;10.70;;
72404;SDS011;60395;52.020;113.548;2023-03-24T19:18:00;26.20;;;9.05;;
72404;SDS011;60395;52.020;113.548;2023-03-24T19:21:08;27.67;;;9.80;;
72404;SDS011;60395;52.020;113.548;2023-03-24T19:24:12;25.83;;;7.82;;
72404;SDS011;60395;52.020;113.548;2023-03-24T19:27:18;19.02;;;7.13;;
72404;SDS011;60395;52.020;113.548;2023-03-24T19:30:21;20.55;;;6.57;;
72404;SDS011;60395;52.020;113.548;2023-03-24T19:33:25;27.40;;;7.10;;
72404;SDS011;60395;52.020;113.548;2023-03-24T19:36:28;18.23;;;5.45;;
72404;SDS011;60395;52.020;113.548;2023-03-24T19:39:31;17.30;;;6.80;;
72404;SDS011;60395;52.020;113.548;2023-03-24T19:42:36;15.52;;;6.75;;
72404;SDS011;60395;52.020;113.548;2023-03-24T19:45:48;14.45;;;5.28;;
72404;SDS011;60395;52.020;113.548;2023-03-24T19:48:52;14.05;;;3.42;;
72404;SDS011;60395;52.020;113.548;2023-03-24T19:51:55;9.40;;;4.00;;
72404;SDS011;60395;52.020;113.548;2023-03-24T19:54:59;17.02;;;4.75;;
72404;SDS011;60395;52.020;113.548;2023-03-24T19:58:03;18.02;;;4.40;;
72404;SDS011;60395;52.020;113.548;2023-03-24T20:01:07;25.48;;;8.20;;
72404;SDS011;60395;52.020;113.548;2023-03-24T20:04:10;44.13;;;17.35;;
72404;SDS011;60395;52.020;113.548;2023-03-24T20:07:13;29.85;;;9.75;;
72404;SDS011;60395;52.020;113.548;2023-03-24T20:10:19;17.88;;;5.43;;
72404;SDS011;60395;52.020;113.548;2023-03-24T20:13:22;14.02;;;4.90;;
72404;SDS011;60395;52.020;113.548;2023-03-24T20:16:30;10.15;;;3.83;;
72404;SDS011;60395;52.020;113.548;2023-03-24T20:19:33;10.27;;;3.92;;
72404;SDS011;60395;52.020;113.548;2023-03-24T20:22:37;15.82;;;3.25;;
72404;SDS011;60395;52.020;113.548;2023-03-24T20:25:47;15.40;;;4.15;;
72404;SDS011;60395;52.020;113.548;2023-03-24T20:31:54;7.22;;;3.47;;
72404;SDS011;60395;52.020;113.548;2023-03-24T20:34:58;4.97;;;2.53;;
72404;SDS011;60395;52.020;113.548;2023-03-24T20:38:01;5.80;;;3.08;;
72404;SDS011;60395;52.020;113.548;2023-03-24T20:41:05;8.60;;;3.25;;
72404;SDS011;60395;52.020;113.548;2023-03-24T20:44:09;14.80;;;4.78;;
72404;SDS011;60395;52.020;113.548;2023-03-24T20:47:12;7.10;;;2.67;;
72404;SDS011;60395;52.020;113.548;2023-03-24T20:50:16;10.90;;;3.70;;
72404;SDS011;60395;52.020;113.548;2023-03-24T20:53:19;13.02;;;3.90;;